createdAt,value
2023-02-19T00:00:18.604Z,100.00
2023-02-19T00:03:03.803Z,100.00
2023-02-19T00:05:49.071Z,100.00
2023-02-19T00:08:36.130Z,100.00
2023-02-19T00:11:23.700Z,100.00
2023-02-19T00:14:10.486Z,100.00
2023-02-19T00:16:55.823Z,100.00
2023-02-19T00:19:41.102Z,100.00
2023-02-19T00:22:26.120Z,100.00
2023-02-19T00:25:10.960Z,100.00
2023-02-19T00:27:56.080Z,100.00
2023-02-19T00:30:41.259Z,100.00
2023-02-19T00:33:28.611Z,100.00
2023-02-19T00:36:14.959Z,100.00
2023-02-19T00:39:00.178Z,100.00
2023-02-19T00:41:46.544Z,100.00
2023-02-19T00:44:31.837Z,100.00
2023-02-19T00:47:17.090Z,100.00
2023-02-19T00:50:02.345Z,100.00
2023-02-19T00:52:47.283Z,100.00
2023-02-19T00:55:32.479Z,100.00
2023-02-19T00:58:17.620Z,100.00
2023-02-19T01:01:03.335Z,100.00
2023-02-19T01:03:49.296Z,100.00
2023-02-19T01:06:35.302Z,100.00
2023-02-19T01:09:20.317Z,100.00
2023-02-19T01:12:06.458Z,100.00
2023-02-19T01:14:51.550Z,100.00
2023-02-19T01:17:36.683Z,100.00
2023-02-19T01:20:21.942Z,100.00
2023-02-19T01:23:07.411Z,100.00
2023-02-19T01:25:52.485Z,100.00
2023-02-19T01:28:37.737Z,100.00
2023-02-19T01:31:24.609Z,100.00
2023-02-19T01:34:11.044Z,100.00
2023-02-19T01:36:56.026Z,100.00
2023-02-19T01:39:40.951Z,100.00
2023-02-19T01:42:26.180Z,100.00
2023-02-19T01:45:29.881Z,100.00
2023-02-19T01:48:20.913Z,100.00
2023-02-19T01:51:11.191Z,100.00
2023-02-19T01:54:00.201Z,100.00
2023-02-19T01:56:48.314Z,100.00
2023-02-19T01:59:34.450Z,100.00
2023-02-19T02:02:19.624Z,100.00
2023-02-19T02:05:10.414Z,100.00
2023-02-19T02:08:14.504Z,100.00
2023-02-19T02:11:00.886Z,100.00
2023-02-19T02:13:46.237Z,100.00
2023-02-19T02:16:39.939Z,100.00
2023-02-19T02:20:03.201Z,100.00
2023-02-19T02:22:57.747Z,100.00
2023-02-19T02:25:58.193Z,100.00
2023-02-19T02:29:22.209Z,100.00
2023-02-19T02:32:16.141Z,100.00
2023-02-19T02:35:07.497Z,100.00
2023-02-19T02:37:56.929Z,100.00
2023-02-19T02:40:44.978Z,100.00
2023-02-19T02:43:31.580Z,100.00
2023-02-19T02:46:23.568Z,100.00
2023-02-19T02:49:17.191Z,100.00
2023-02-19T02:52:22.579Z,100.00
2023-02-19T02:55:10.895Z,100.00
2023-02-19T02:57:56.025Z,100.00
2023-02-19T03:01:02.970Z,100.00
2023-02-19T03:03:54.729Z,100.00
2023-02-19T03:06:43.614Z,100.00
2023-02-19T03:09:40.721Z,100.00
2023-02-19T03:12:47.583Z,100.00
2023-02-19T03:15:57.619Z,100.00
2023-02-19T03:19:04.920Z,100.00
2023-02-19T03:22:03.122Z,100.00
2023-02-19T03:25:19.392Z,100.00
2023-02-19T03:28:08.341Z,100.00
2023-02-19T03:30:55.427Z,100.00
2023-02-19T03:33:43.191Z,100.00
2023-02-19T03:36:37.757Z,100.00
2023-02-19T03:39:23.788Z,100.00
2023-02-19T03:42:21.693Z,100.00
2023-02-19T03:45:30.486Z,100.00
2023-02-19T03:48:29.406Z,100.00
2023-02-19T03:51:25.165Z,100.00
2023-02-19T03:54:28.503Z,100.00
2023-02-19T03:57:23.600Z,100.00
2023-02-19T04:00:35.835Z,100.00
2023-02-19T04:03:29.463Z,100.00
2023-02-19T04:06:19.674Z,100.00
2023-02-19T04:09:08.707Z,100.00
2023-02-19T04:11:55.160Z,100.00
2023-02-19T04:14:46.907Z,100.00
2023-02-19T04:17:39.246Z,100.00
2023-02-19T04:20:27.274Z,100.00
2023-02-19T04:23:14.645Z,100.00
2023-02-19T04:26:01.205Z,100.00
2023-02-19T04:28:46.814Z,100.00
2023-02-19T04:31:35.322Z,100.00
2023-02-19T04:34:20.376Z,100.00
2023-02-19T04:37:06.019Z,100.00
2023-02-19T04:39:50.989Z,100.00
2023-02-19T04:42:36.242Z,100.00
2023-02-19T04:45:21.340Z,100.00
2023-02-19T04:48:06.649Z,100.00
2023-02-19T04:50:51.508Z,100.00
2023-02-19T04:53:37.452Z,100.00
2023-02-19T04:56:22.705Z,100.00
2023-02-19T04:59:07.792Z,100.00
2023-02-19T05:01:52.964Z,100.00
2023-02-19T05:04:37.974Z,100.00
2023-02-19T05:07:23.073Z,100.00
2023-02-19T05:10:08.349Z,100.00
2023-02-19T05:12:56.863Z,100.00
2023-02-19T05:15:42.992Z,100.00
2023-02-19T05:18:28.459Z,100.00
2023-02-19T05:21:14.652Z,100.00
2023-02-19T05:23:59.968Z,100.00
2023-02-19T05:26:45.552Z,100.00
2023-02-19T05:29:32.030Z,100.00
2023-02-19T05:32:17.220Z,100.00
2023-02-19T05:35:02.085Z,100.00
2023-02-19T05:37:47.330Z,100.00
2023-02-19T05:40:32.255Z,100.00
2023-02-19T05:43:18.173Z,100.00
2023-02-19T05:46:03.382Z,100.00
2023-02-19T05:48:49.509Z,100.00
2023-02-19T05:51:34.529Z,100.00
2023-02-19T05:54:19.483Z,100.00
2023-02-19T05:57:04.461Z,100.00
2023-02-19T05:59:49.330Z,100.00
2023-02-19T06:02:34.700Z,100.00
2023-02-19T06:05:20.045Z,100.00
2023-02-19T06:08:05.493Z,100.00
2023-02-19T06:10:50.809Z,100.00
2023-02-19T06:13:35.996Z,100.00
2023-02-19T06:16:22.120Z,100.00
2023-02-19T06:19:07.172Z,100.00
2023-02-19T06:21:52.476Z,100.00
2023-02-19T06:24:37.812Z,100.00
2023-02-19T06:27:23.023Z,100.00
2023-02-19T06:30:09.059Z,100.00
2023-02-19T06:32:54.382Z,100.00
2023-02-19T06:35:39.340Z,100.00
2023-02-19T06:38:24.982Z,100.00
2023-02-19T06:41:11.372Z,100.00
2023-02-19T06:43:58.547Z,100.00
2023-02-19T06:46:43.801Z,100.00
2023-02-19T06:49:29.287Z,100.00
2023-02-19T06:52:14.683Z,100.00
2023-02-19T06:54:59.795Z,100.00
2023-02-19T06:57:44.915Z,100.00
2023-02-19T07:00:30.215Z,100.00
2023-02-19T07:03:15.444Z,100.00
2023-02-19T07:06:00.965Z,100.00
2023-02-19T07:08:46.389Z,100.00
2023-02-19T07:11:33.980Z,100.00
2023-02-19T07:14:19.192Z,100.00
2023-02-19T07:17:04.505Z,100.00
2023-02-19T07:19:49.519Z,100.00
2023-02-19T07:22:34.509Z,100.00
2023-02-19T07:25:19.714Z,100.00
2023-02-19T07:28:04.955Z,100.00
2023-02-19T07:30:50.445Z,100.00
2023-02-19T07:33:35.622Z,100.00
2023-02-19T07:36:23.693Z,100.00
2023-02-19T07:39:13.101Z,100.00
2023-02-19T07:41:58.549Z,100.00
2023-02-19T07:44:43.581Z,100.00
2023-02-19T07:47:29.562Z,100.00
2023-02-19T07:50:14.532Z,100.00
2023-02-19T07:52:59.878Z,100.00
2023-02-19T07:55:45.024Z,100.00
2023-02-19T07:58:30.695Z,100.00
2023-02-19T08:01:39.911Z,100.00
2023-02-19T08:04:25.259Z,100.00
2023-02-19T08:07:10.577Z,100.00
2023-02-19T08:10:15.797Z,100.00
2023-02-19T08:13:19.433Z,100.00
2023-02-19T08:16:16.348Z,100.00
2023-02-19T08:19:02.539Z,100.00
2023-02-19T08:21:47.720Z,100.00
2023-02-19T08:24:33.883Z,100.00
2023-02-19T08:27:18.958Z,100.00
2023-02-19T08:30:05.481Z,100.00
2023-02-19T08:32:50.683Z,100.00
2023-02-19T08:35:36.630Z,100.00
2023-02-19T08:38:21.774Z,100.00
2023-02-19T08:41:09.748Z,100.00
2023-02-19T08:43:55.326Z,100.00
2023-02-19T08:46:40.490Z,100.00
2023-02-19T08:49:28.542Z,100.00
2023-02-19T08:52:13.863Z,100.00
2023-02-19T08:54:59.466Z,100.00
2023-02-19T08:57:45.049Z,100.00
2023-02-19T09:00:30.306Z,100.00
2023-02-19T09:03:15.636Z,100.00
2023-02-19T09:06:00.803Z,100.00
2023-02-19T09:08:46.137Z,100.00
2023-02-19T09:11:31.373Z,100.00
2023-02-19T09:14:16.535Z,100.00
2023-02-19T09:17:04.337Z,100.00
2023-02-19T09:19:50.859Z,100.00
2023-02-19T09:22:36.097Z,100.00
2023-02-19T09:25:21.420Z,100.00
2023-02-19T09:28:06.793Z,100.00
2023-02-19T09:30:52.105Z,100.00
2023-02-19T09:33:37.338Z,100.00
2023-02-19T09:36:22.293Z,100.00
2023-02-19T09:39:10.460Z,100.00
2023-02-19T09:42:01.216Z,100.00
2023-02-19T09:44:51.725Z,100.00
2023-02-19T09:47:36.827Z,100.00
2023-02-19T09:50:30.332Z,100.00
2023-02-19T09:53:27.222Z,100.00
2023-02-19T09:56:12.279Z,100.00
2023-02-19T09:58:59.485Z,100.00
2023-02-19T10:01:45.343Z,100.00
2023-02-19T10:04:30.380Z,100.00
2023-02-19T10:07:18.098Z,100.00
2023-02-19T10:10:17.930Z,100.00
2023-02-19T10:13:28.726Z,99.00
2023-02-19T10:16:19.443Z,97.61
2023-02-19T10:19:05.149Z,96.55
2023-02-19T10:21:50.153Z,96.08
2023-02-19T10:24:37.564Z,94.63
2023-02-19T10:27:29.157Z,92.80
2023-02-19T10:30:21.800Z,92.22
2023-02-19T10:33:16.713Z,92.09
2023-02-19T10:36:07.730Z,91.19
2023-02-19T10:38:53.311Z,90.90
2023-02-19T10:41:44.048Z,90.27
2023-02-19T10:44:38.394Z,89.13
2023-02-19T10:47:26.422Z,87.81
2023-02-19T10:50:48.053Z,85.75
2023-02-19T10:53:48.900Z,84.82
2023-02-19T10:56:34.071Z,83.57
2023-02-19T10:59:18.963Z,83.24
2023-02-19T11:02:17.376Z,83.54
2023-02-19T11:05:18.216Z,83.90
2023-02-19T11:08:03.278Z,83.30
2023-02-19T11:10:49.856Z,82.23
2023-02-19T11:13:38.011Z,81.63
2023-02-19T11:16:42.198Z,80.46
2023-02-19T11:19:37.314Z,78.98
2023-02-19T11:22:35.524Z,77.99
2023-02-19T11:25:25.635Z,76.64
2023-02-19T11:28:17.856Z,75.81
2023-02-19T11:31:23.589Z,73.14
2023-02-19T11:34:14.808Z,72.58
2023-02-19T11:37:10.706Z,72.38
2023-02-19T11:39:55.762Z,71.59
2023-02-19T11:43:12.327Z,71.00
2023-02-19T11:46:24.862Z,70.35
2023-02-19T11:49:34.020Z,70.54
2023-02-19T11:52:22.434Z,69.34
2023-02-19T11:55:16.443Z,67.73
2023-02-19T11:58:21.651Z,66.17
2023-02-19T12:01:31.554Z,67.11
2023-02-19T12:04:47.718Z,66.04
2023-02-19T12:07:38.869Z,65.41
2023-02-19T12:10:52.879Z,65.08
2023-02-19T12:13:53.483Z,64.75
2023-02-19T12:16:55.900Z,63.32
2023-02-19T12:19:53.222Z,62.74
2023-02-19T12:23:00.204Z,61.25
2023-02-19T12:25:57.092Z,61.39
2023-02-19T12:29:12.834Z,61.76
2023-02-19T12:32:16.585Z,60.61
2023-02-19T12:35:23.666Z,61.61
2023-02-19T12:38:11.641Z,61.13
2023-02-19T12:41:06.113Z,61.19
2023-02-19T12:44:00.539Z,60.43
2023-02-19T12:46:52.057Z,60.41
2023-02-19T12:49:42.536Z,62.68
2023-02-19T12:52:34.473Z,62.17
2023-02-19T12:55:27.199Z,61.38
2023-02-19T12:58:33.825Z,61.70
2023-02-19T13:01:26.389Z,61.74
2023-02-19T13:04:21.986Z,61.84
2023-02-19T13:07:31.552Z,61.62
2023-02-19T13:10:26.704Z,62.03
2023-02-19T13:13:30.727Z,62.42
2023-02-19T13:16:19.059Z,64.08
2023-02-19T13:19:05.518Z,63.33
2023-02-19T13:22:35.195Z,62.81
2023-02-19T13:25:21.123Z,62.20
2023-02-19T13:28:40.161Z,61.03
2023-02-19T13:32:06.890Z,60.43
2023-02-19T13:35:06.320Z,61.47
2023-02-19T13:37:53.247Z,62.98
2023-02-19T13:40:52.883Z,62.14
2023-02-19T13:43:39.096Z,62.50
2023-02-19T13:46:25.333Z,62.68
2023-02-19T13:49:36.923Z,62.12
2023-02-19T13:52:33.727Z,63.05
2023-02-19T13:55:47.125Z,61.39
2023-02-19T13:58:32.522Z,59.38
2023-02-19T14:01:18.497Z,58.75
2023-02-19T14:04:37.270Z,58.77
2023-02-19T14:07:28.284Z,57.77
2023-02-19T14:10:50.430Z,57.73
2023-02-19T14:13:47.693Z,57.73
2023-02-19T14:16:50.445Z,57.11
2023-02-19T14:19:41.587Z,56.91
2023-02-19T14:22:45.053Z,57.29
2023-02-19T14:25:39.788Z,57.47
2023-02-19T14:28:37.991Z,57.69
2023-02-19T14:31:31.991Z,57.42
2023-02-19T14:34:23.616Z,57.44
2023-02-19T14:37:19.743Z,57.35
2023-02-19T14:40:05.597Z,58.32
2023-02-19T14:42:55.097Z,58.03
2023-02-19T14:45:46.586Z,58.29
2023-02-19T14:48:38.191Z,58.11
2023-02-19T14:51:44.636Z,58.60
2023-02-19T14:54:39.858Z,58.55
2023-02-19T14:57:29.542Z,59.18
2023-02-19T15:00:30.881Z,59.87
2023-02-19T15:03:34.934Z,60.77
2023-02-19T15:06:20.228Z,60.82
2023-02-19T15:09:07.272Z,60.96
2023-02-19T15:11:54.235Z,61.28
2023-02-19T15:14:40.236Z,61.79
2023-02-19T15:17:29.222Z,62.22
2023-02-19T15:20:19.754Z,63.02
2023-02-19T15:23:07.446Z,64.29
2023-02-19T15:25:53.076Z,64.42
2023-02-19T15:28:38.008Z,64.96
2023-02-19T15:31:22.974Z,65.04
2023-02-19T15:34:16.664Z,65.57
2023-02-19T15:37:06.395Z,66.98
2023-02-19T15:39:53.266Z,67.06
2023-02-19T15:42:38.593Z,66.73
2023-02-19T15:45:28.109Z,66.57
2023-02-19T15:48:18.595Z,67.07
2023-02-19T15:51:11.999Z,67.04
2023-02-19T15:54:07.631Z,67.06
2023-02-19T15:56:56.912Z,66.90
2023-02-19T15:59:53.326Z,66.87
2023-02-19T16:02:38.516Z,67.09
2023-02-19T16:05:28.875Z,67.28
2023-02-19T16:08:20.932Z,68.17
2023-02-19T16:11:27.579Z,67.93
2023-02-19T16:14:37.556Z,68.21
2023-02-19T16:17:27.893Z,68.06
2023-02-19T16:20:34.651Z,68.31
2023-02-19T16:23:24.110Z,68.32
2023-02-19T16:26:09.331Z,68.52
2023-02-19T16:28:55.459Z,68.75
2023-02-19T16:31:50.734Z,69.13
2023-02-19T16:34:50.919Z,69.47
2023-02-19T16:37:41.175Z,70.05
2023-02-19T16:40:35.365Z,70.02
2023-02-19T16:43:41.514Z,70.55
2023-02-19T16:46:26.648Z,71.00
2023-02-19T16:49:11.886Z,71.47
2023-02-19T16:51:59.749Z,71.58
2023-02-19T16:54:45.027Z,72.20
2023-02-19T16:57:32.085Z,72.61
2023-02-19T17:00:28.901Z,73.10
2023-02-19T17:03:18.919Z,73.46
2023-02-19T17:06:04.197Z,73.91
2023-02-19T17:08:49.449Z,74.43
2023-02-19T17:11:36.031Z,74.36
2023-02-19T17:14:21.029Z,74.92
2023-02-19T17:17:06.415Z,75.21
2023-02-19T17:19:51.754Z,76.79
2023-02-19T17:22:36.957Z,78.38
2023-02-19T17:25:23.300Z,79.88
2023-02-19T17:28:08.622Z,81.22
2023-02-19T17:30:54.163Z,82.18
2023-02-19T17:33:39.608Z,83.02
2023-02-19T17:36:30.425Z,83.79
2023-02-19T17:39:16.316Z,84.91
2023-02-19T17:42:01.662Z,85.89
2023-02-19T17:44:47.439Z,86.37
2023-02-19T17:47:32.625Z,86.90
2023-02-19T17:50:21.640Z,88.50
2023-02-19T17:53:07.381Z,89.53
2023-02-19T17:55:52.502Z,90.15
2023-02-19T17:58:37.517Z,91.12
2023-02-19T18:01:23.452Z,92.02
2023-02-19T18:04:08.874Z,92.49
2023-02-19T18:06:54.109Z,92.90
2023-02-19T18:09:41.079Z,93.24
2023-02-19T18:12:26.624Z,93.36
2023-02-19T18:15:18.353Z,93.80
2023-02-19T18:18:04.988Z,94.23
2023-02-19T18:20:50.380Z,94.51
2023-02-19T18:23:35.734Z,95.37
2023-02-19T18:26:21.515Z,95.38
2023-02-19T18:29:06.822Z,96.03
2023-02-19T18:31:52.053Z,96.47
2023-02-19T18:34:37.233Z,97.12
2023-02-19T18:37:24.312Z,97.82
2023-02-19T18:40:09.980Z,98.14
2023-02-19T18:42:55.547Z,98.64
2023-02-19T18:45:40.682Z,99.14
2023-02-19T18:48:25.934Z,99.57
2023-02-19T18:51:12.478Z,100.00
2023-02-19T18:53:58.444Z,100.00
2023-02-19T18:56:45.275Z,100.00
2023-02-19T18:59:30.951Z,100.00
2023-02-19T19:02:16.143Z,100.00
2023-02-19T19:05:01.549Z,100.00
2023-02-19T19:07:46.694Z,100.00
2023-02-19T19:10:31.974Z,100.00
2023-02-19T19:13:17.128Z,100.00
2023-02-19T19:16:02.430Z,100.00
2023-02-19T19:18:47.807Z,100.00
2023-02-19T19:21:32.968Z,100.00
2023-02-19T19:24:18.373Z,100.00
2023-02-19T19:27:03.520Z,100.00
2023-02-19T19:29:49.724Z,100.00
2023-02-19T19:32:34.897Z,100.00
2023-02-19T19:35:21.382Z,100.00
2023-02-19T19:38:06.709Z,100.00
2023-02-19T19:40:51.908Z,100.00
2023-02-19T19:43:37.828Z,100.00
2023-02-19T19:46:23.123Z,100.00
2023-02-19T19:49:08.571Z,100.00
2023-02-19T19:51:53.970Z,100.00
2023-02-19T19:54:42.109Z,100.00
2023-02-19T19:57:27.322Z,100.00
2023-02-19T20:00:16.107Z,100.00
2023-02-19T20:03:02.080Z,100.00
2023-02-19T20:05:50.678Z,100.00
2023-02-19T20:08:35.942Z,100.00
2023-02-19T20:11:20.908Z,100.00
2023-02-19T20:14:06.227Z,100.00
2023-02-19T20:16:52.549Z,100.00
2023-02-19T20:19:37.903Z,100.00
2023-02-19T20:22:23.320Z,100.00
2023-02-19T20:25:08.323Z,100.00
2023-02-19T20:27:53.833Z,100.00
2023-02-19T20:30:39.110Z,100.00
2023-02-19T20:33:24.259Z,100.00
2023-02-19T20:36:09.592Z,100.00
2023-02-19T20:38:55.219Z,100.00
2023-02-19T20:41:44.091Z,100.00
2023-02-19T20:44:29.924Z,100.00
2023-02-19T20:47:14.929Z,100.00
2023-02-19T20:50:00.432Z,100.00
2023-02-19T20:52:46.568Z,100.00
2023-02-19T20:55:31.985Z,100.00
2023-02-19T20:58:19.448Z,100.00
2023-02-19T21:01:05.358Z,100.00
2023-02-19T21:03:50.589Z,100.00
2023-02-19T21:06:35.492Z,100.00
2023-02-19T21:09:22.497Z,100.00
2023-02-19T21:12:07.834Z,100.00
2023-02-19T21:14:53.063Z,100.00
2023-02-19T21:17:38.115Z,100.00
2023-02-19T21:20:23.082Z,100.00
2023-02-19T21:23:14.576Z,100.00
2023-02-19T21:26:02.366Z,100.00
2023-02-19T21:28:47.822Z,100.00
2023-02-19T21:31:48.599Z,100.00
2023-02-19T21:34:33.679Z,100.00
2023-02-19T21:37:18.730Z,100.00
2023-02-19T21:40:04.352Z,100.00
2023-02-19T21:42:49.664Z,100.00
2023-02-19T21:45:34.941Z,100.00
2023-02-19T21:48:19.919Z,100.00
2023-02-19T21:51:05.269Z,100.00
2023-02-19T21:53:50.617Z,100.00
2023-02-19T21:56:36.869Z,100.00
2023-02-19T21:59:22.741Z,100.00
2023-02-19T22:02:09.361Z,100.00
2023-02-19T22:04:55.087Z,100.00
2023-02-19T22:07:40.150Z,100.00
2023-02-19T22:10:25.470Z,100.00
2023-02-19T22:13:11.073Z,100.00
2023-02-19T22:15:56.330Z,100.00
2023-02-19T22:18:53.243Z,100.00
2023-02-19T22:21:42.620Z,100.00
2023-02-19T22:24:27.848Z,100.00
2023-02-19T22:27:13.142Z,100.00
2023-02-19T22:29:58.395Z,100.00
2023-02-19T22:32:43.482Z,100.00
2023-02-19T22:35:28.354Z,100.00
2023-02-19T22:38:13.343Z,100.00
2023-02-19T22:40:58.562Z,100.00
2023-02-19T22:43:44.010Z,100.00
2023-02-19T22:46:30.950Z,100.00
2023-02-19T22:49:16.132Z,100.00
2023-02-19T22:52:03.565Z,100.00
2023-02-19T22:54:48.637Z,100.00
2023-02-19T22:57:33.790Z,100.00
2023-02-19T23:00:21.480Z,100.00
2023-02-19T23:03:06.626Z,100.00
2023-02-19T23:05:51.775Z,100.00
2023-02-19T23:08:36.915Z,100.00
2023-02-19T23:11:25.054Z,100.00
2023-02-19T23:14:10.312Z,100.00
2023-02-19T23:16:55.339Z,100.00
2023-02-19T23:19:40.591Z,100.00
2023-02-19T23:22:25.965Z,100.00
2023-02-19T23:25:11.056Z,100.00
2023-02-19T23:27:56.302Z,100.00
2023-02-19T23:30:41.466Z,100.00
2023-02-19T23:33:26.852Z,100.00
2023-02-19T23:36:13.590Z,100.00
2023-02-19T23:38:59.028Z,100.00
2023-02-19T23:41:49.604Z,100.00
2023-02-19T23:44:34.635Z,100.00
2023-02-19T23:47:21.829Z,100.00
2023-02-19T23:50:07.359Z,100.00
2023-02-19T23:52:52.778Z,100.00
2023-02-19T23:55:38.058Z,100.00
2023-02-19T23:58:23.158Z,100.00
